createdAt,value
2017-12-03T00:00:28.007Z,45.72
2017-12-03T00:02:56.153Z,45.63
2017-12-03T00:05:24.324Z,50.10
2017-12-03T00:07:52.456Z,47.83
2017-12-03T00:10:20.758Z,48.55
2017-12-03T00:12:48.895Z,48.47
2017-12-03T00:15:17.805Z,54.13
2017-12-03T00:17:45.980Z,51.50
2017-12-03T00:20:14.131Z,54.58
2017-12-03T00:22:42.321Z,54.35
2017-12-03T00:25:10.468Z,56.85
2017-12-03T00:27:39.369Z,59.67
2017-12-03T00:30:08.433Z,52.85
2017-12-03T00:32:36.582Z,59.17
2017-12-03T00:35:05.463Z,47.67
2017-12-03T00:37:34.388Z,53.28
2017-12-03T00:40:02.528Z,55.12
2017-12-03T00:42:30.707Z,58.33
2017-12-03T00:44:58.843Z,50.08
2017-12-03T00:47:27.917Z,54.00
2017-12-03T00:49:56.057Z,45.67
2017-12-03T00:52:24.173Z,47.25
2017-12-03T00:54:53.124Z,52.00
2017-12-03T00:57:21.252Z,45.83
2017-12-03T00:59:49.425Z,41.90
2017-12-03T01:02:17.563Z,48.17
2017-12-03T01:04:45.712Z,47.78
2017-12-03T01:07:13.996Z,46.97
2017-12-03T01:09:42.140Z,51.35
2017-12-03T01:12:10.276Z,46.37
2017-12-03T01:14:39.213Z,48.08
2017-12-03T01:17:07.380Z,45.42
2017-12-03T01:19:35.555Z,48.33
2017-12-03T01:22:03.684Z,41.92
2017-12-03T01:24:32.586Z,40.33
2017-12-03T01:27:01.672Z,43.55
2017-12-03T01:29:30.577Z,47.80
2017-12-03T01:31:59.489Z,48.22
2017-12-03T01:34:27.659Z,42.90
2017-12-03T01:36:55.796Z,47.30
2017-12-03T01:39:23.952Z,46.22
2017-12-03T01:41:52.116Z,46.08
2017-12-03T01:44:20.250Z,47.25
2017-12-03T01:46:48.528Z,51.88
2017-12-03T01:49:16.665Z,48.03
2017-12-03T01:51:45.608Z,52.05
2017-12-03T01:54:13.744Z,49.10
2017-12-03T01:56:42.669Z,48.22
2017-12-03T01:59:10.846Z,53.42
2017-12-03T02:01:38.967Z,44.78
2017-12-03T02:04:08.038Z,45.15
2017-12-03T02:06:36.177Z,47.03
2017-12-03T02:09:04.356Z,44.03
2017-12-03T02:11:32.499Z,44.90
2017-12-03T02:14:01.413Z,47.72
2017-12-03T02:16:29.617Z,48.03
2017-12-03T02:18:57.746Z,45.17
2017-12-03T02:21:26.069Z,41.85
2017-12-03T02:23:54.205Z,42.80
2017-12-03T02:26:22.339Z,46.25
2017-12-03T02:28:50.505Z,38.45
2017-12-03T02:31:18.666Z,39.90
2017-12-03T02:33:46.848Z,40.10
2017-12-03T02:36:14.987Z,47.15
2017-12-03T02:38:43.284Z,46.80
2017-12-03T02:41:11.420Z,42.97
2017-12-03T02:43:39.559Z,43.45
2017-12-03T02:46:07.711Z,41.05
2017-12-03T02:48:35.864Z,38.00
2017-12-03T02:51:04.030Z,41.40
2017-12-03T02:53:32.168Z,40.22
2017-12-03T02:56:01.073Z,42.80
2017-12-03T02:58:29.344Z,36.45
2017-12-03T03:00:57.483Z,45.75
2017-12-03T03:03:25.622Z,43.40
2017-12-03T03:05:53.795Z,41.30
2017-12-03T03:08:21.923Z,43.50
2017-12-03T03:10:50.853Z,46.92
2017-12-03T03:13:19.002Z,40.70
2017-12-03T03:15:47.304Z,44.20
2017-12-03T03:18:15.436Z,42.78
2017-12-03T03:20:44.345Z,46.17
2017-12-03T03:23:12.499Z,42.40
2017-12-03T03:25:41.429Z,47.70
2017-12-03T03:28:09.610Z,46.05
2017-12-03T03:30:37.750Z,47.47
2017-12-03T03:33:05.892Z,40.58
2017-12-03T03:35:34.162Z,41.15
2017-12-03T03:38:02.296Z,44.15
2017-12-03T03:40:30.468Z,49.00
2017-12-03T03:42:58.604Z,40.85
2017-12-03T03:45:27.509Z,47.13
2017-12-03T03:47:55.676Z,40.47
2017-12-03T03:50:24.580Z,41.08
2017-12-03T03:52:52.897Z,46.00
2017-12-03T03:55:21.048Z,45.92
2017-12-03T03:57:49.187Z,51.70
2017-12-03T04:00:17.349Z,47.22
2017-12-03T04:02:46.260Z,46.45
2017-12-03T04:05:14.451Z,46.15
2017-12-03T04:07:42.588Z,47.15
2017-12-03T04:10:11.506Z,44.60
2017-12-03T04:12:39.700Z,46.50
2017-12-03T04:15:07.832Z,44.00
2017-12-03T04:17:36.787Z,49.05
2017-12-03T04:20:04.944Z,45.92
2017-12-03T04:22:33.093Z,42.85
2017-12-03T04:25:01.253Z,46.90
2017-12-03T04:27:30.148Z,50.10
2017-12-03T04:29:58.427Z,47.55
2017-12-03T04:32:26.587Z,42.15
2017-12-03T04:34:55.491Z,43.80
2017-12-03T04:37:23.659Z,43.08
2017-12-03T04:39:51.808Z,49.90
2017-12-03T04:42:19.942Z,44.28
2017-12-03T04:44:48.111Z,48.38
2017-12-03T04:47:16.257Z,48.83
2017-12-03T04:49:44.396Z,43.60
2017-12-03T04:52:12.674Z,44.47
2017-12-03T04:54:40.808Z,42.03
2017-12-03T04:57:08.975Z,46.28
2017-12-03T04:59:37.116Z,45.35
2017-12-03T05:02:06.020Z,43.00
2017-12-03T05:04:34.188Z,46.63
2017-12-03T05:07:02.345Z,46.65
2017-12-03T05:09:31.404Z,46.28
2017-12-03T05:11:59.553Z,41.25
2017-12-03T05:14:27.700Z,43.83
2017-12-03T05:16:55.881Z,45.55
2017-12-03T05:19:24.019Z,47.22
2017-12-03T05:21:52.208Z,45.40
2017-12-03T05:24:21.136Z,40.47
2017-12-03T05:26:49.281Z,43.60
2017-12-03T05:29:26.100Z,41.67
2017-12-03T05:32:01.749Z,44.60
2017-12-03T05:34:37.620Z,46.30
2017-12-03T05:37:05.884Z,44.75
2017-12-03T05:42:06.888Z,43.50
2017-12-03T05:44:35.788Z,45.63
2017-12-03T05:47:04.073Z,41.22
2017-12-03T05:49:32.212Z,46.00
2017-12-03T05:52:00.356Z,42.75
2017-12-03T05:54:28.530Z,44.13
2017-12-03T05:56:56.663Z,37.25
2017-12-03T05:59:24.800Z,42.42
2017-12-03T06:01:53.104Z,39.55
2017-12-03T06:04:21.251Z,45.15
2017-12-03T06:06:49.400Z,50.58
2017-12-03T06:09:17.567Z,41.55
2017-12-03T06:11:45.700Z,40.75
2017-12-03T06:14:13.840Z,46.28
2017-12-03T06:16:42.042Z,45.65
2017-12-03T06:19:10.210Z,46.97
2017-12-03T06:21:39.104Z,40.88
2017-12-03T06:24:08.148Z,44.58
2017-12-03T06:26:36.288Z,42.17
2017-12-03T06:29:04.456Z,42.62
2017-12-03T06:31:32.612Z,45.85
2017-12-03T06:34:01.536Z,43.08
2017-12-03T06:36:29.720Z,40.30
2017-12-03T06:38:58.020Z,41.40
2017-12-03T06:41:26.182Z,41.17
2017-12-03T06:43:54.364Z,46.35
2017-12-03T06:46:22.480Z,41.90
2017-12-03T06:48:51.431Z,43.05
2017-12-03T06:51:19.570Z,41.75
2017-12-03T06:53:47.718Z,43.30
2017-12-03T06:56:16.768Z,46.92
2017-12-03T06:58:44.950Z,46.92
2017-12-03T07:01:13.135Z,52.30
2017-12-03T07:03:41.273Z,47.92
2017-12-03T07:06:09.428Z,45.10
2017-12-03T07:08:37.564Z,41.60
2017-12-03T07:11:06.648Z,42.17
2017-12-03T07:13:34.785Z,41.20
2017-12-03T07:16:02.941Z,45.22
2017-12-03T07:18:31.109Z,48.50
2017-12-03T07:20:59.249Z,40.85
2017-12-03T07:23:27.408Z,44.15
2017-12-03T07:25:55.568Z,51.08
2017-12-03T07:28:23.721Z,47.67
2017-12-03T07:30:51.845Z,45.08
2017-12-03T07:33:20.904Z,40.90
2017-12-03T07:35:49.029Z,41.08
2017-12-03T07:38:17.173Z,41.70
2017-12-03T07:40:45.370Z,40.45
2017-12-03T07:43:14.282Z,47.10
2017-12-03T07:45:42.410Z,42.80
2017-12-03T07:48:11.352Z,46.13
2017-12-03T07:50:39.513Z,46.37
2017-12-03T07:53:07.638Z,43.25
2017-12-03T07:55:35.836Z,45.30
2017-12-03T07:58:03.964Z,42.55
2017-12-03T08:00:32.109Z,42.40
2017-12-03T08:03:00.387Z,41.65
2017-12-03T08:05:28.536Z,44.17
2017-12-03T08:07:57.471Z,46.60
2017-12-03T08:10:25.642Z,39.95
2017-12-03T08:12:53.833Z,46.78
2017-12-03T08:15:21.973Z,42.08
2017-12-03T08:17:50.129Z,40.30
2017-12-03T08:20:19.076Z,40.08
2017-12-03T08:22:47.237Z,44.15
2017-12-03T08:25:15.369Z,43.90
2017-12-03T08:27:43.649Z,42.00
2017-12-03T08:30:12.548Z,42.15
2017-12-03T08:32:40.728Z,46.40
2017-12-03T08:35:08.911Z,47.35
2017-12-03T08:37:37.075Z,46.28
2017-12-03T08:40:05.218Z,43.35
2017-12-03T08:42:34.136Z,45.15
2017-12-03T08:45:02.330Z,47.25
2017-12-03T08:47:30.488Z,46.85
2017-12-03T08:49:58.765Z,35.65
2017-12-03T08:52:26.924Z,32.17
2017-12-03T08:54:55.810Z,28.62
2017-12-03T08:57:24.733Z,26.23
2017-12-03T08:59:52.870Z,20.45
2017-12-03T09:02:21.816Z,27.42
2017-12-03T09:04:49.953Z,21.58
2017-12-03T09:07:18.092Z,23.65
2017-12-03T09:09:46.287Z,20.52
2017-12-03T09:12:14.440Z,20.83
2017-12-03T09:14:43.399Z,19.45
2017-12-03T09:17:11.578Z,25.65
2017-12-03T09:19:39.705Z,24.80
2017-12-03T09:22:07.975Z,20.62
2017-12-03T09:24:36.879Z,22.83
2017-12-03T09:27:05.020Z,20.42
2017-12-03T09:29:54.649Z,17.98
2017-12-03T09:32:41.787Z,21.35
2017-12-03T09:35:09.961Z,20.00
2017-12-03T09:37:38.094Z,18.92
2017-12-03T09:40:06.237Z,21.73
2017-12-03T09:42:35.198Z,19.83
2017-12-03T09:45:03.345Z,19.25
2017-12-03T09:47:31.630Z,19.40
2017-12-03T09:49:59.780Z,18.30
2017-12-03T09:52:27.928Z,19.62
2017-12-03T09:54:56.887Z,22.02
2017-12-03T09:57:25.036Z,21.40
2017-12-03T09:59:53.334Z,21.58
2017-12-03T10:02:21.465Z,22.55
2017-12-03T10:04:49.600Z,20.73
2017-12-03T10:07:17.765Z,22.23
2017-12-03T10:09:45.915Z,20.15
2017-12-03T10:12:14.080Z,20.92
2017-12-03T10:14:42.216Z,17.75
2017-12-03T10:17:11.149Z,22.08
2017-12-03T10:19:39.454Z,24.50
2017-12-03T10:22:07.609Z,18.92
2017-12-03T10:24:35.754Z,19.20
2017-12-03T10:27:03.910Z,19.42
2017-12-03T10:29:32.121Z,20.10
2017-12-03T10:32:00.262Z,19.08
2017-12-03T10:34:29.208Z,22.33
2017-12-03T10:36:57.400Z,23.80
2017-12-03T10:39:25.547Z,22.30
2017-12-03T10:41:53.840Z,19.98
2017-12-03T10:44:21.984Z,22.55
2017-12-03T10:46:50.175Z,19.65
2017-12-03T10:49:18.328Z,22.67
2017-12-03T10:51:46.469Z,22.00
2017-12-03T10:54:14.784Z,18.70
2017-12-03T10:56:43.693Z,23.10
2017-12-03T10:59:11.932Z,19.40
2017-12-03T11:01:40.812Z,23.67
2017-12-03T11:04:08.952Z,19.17
2017-12-03T11:06:37.117Z,19.10
2017-12-03T11:09:05.320Z,18.58
2017-12-03T11:11:34.293Z,19.15
2017-12-03T11:14:02.590Z,19.73
2017-12-03T11:16:30.809Z,20.08
2017-12-03T11:18:59.053Z,22.15
2017-12-03T11:21:53.863Z,20.27
2017-12-03T11:27:30.148Z,18.30
2017-12-03T11:29:58.296Z,20.15
2017-12-03T11:32:26.614Z,18.67
2017-12-03T11:34:55.419Z,18.48
2017-12-03T11:37:23.564Z,17.65
2017-12-03T11:39:51.725Z,19.17
2017-12-03T11:42:19.890Z,19.15
2017-12-03T11:44:48.089Z,23.10
2017-12-03T11:47:16.236Z,21.12
2017-12-03T11:49:44.383Z,20.15
2017-12-03T11:52:13.433Z,20.40
2017-12-03T11:54:41.573Z,23.60
2017-12-03T11:57:09.753Z,20.17
2017-12-03T11:59:37.913Z,20.98
2017-12-03T12:02:06.822Z,20.25
2017-12-03T12:04:35.142Z,19.95
2017-12-03T12:07:03.296Z,18.80
2017-12-03T12:09:31.438Z,21.50
2017-12-03T12:11:59.625Z,19.50
2017-12-03T12:14:27.821Z,18.05
2017-12-03T12:16:56.021Z,22.50
2017-12-03T12:19:24.150Z,20.12
2017-12-03T12:21:52.301Z,21.48
2017-12-03T12:24:21.244Z,21.52
2017-12-03T12:26:49.389Z,21.90
2017-12-03T12:29:17.562Z,22.27
2017-12-03T12:31:45.698Z,19.83
2017-12-03T12:34:17.095Z,20.42
2017-12-03T12:36:45.270Z,19.23
2017-12-03T12:39:13.563Z,20.35
2017-12-03T12:41:41.743Z,20.67
2017-12-03T12:44:09.912Z,22.62
2017-12-03T12:46:38.048Z,17.80
2017-12-03T12:49:06.219Z,19.58
2017-12-03T12:51:34.384Z,17.42
2017-12-03T12:54:02.528Z,20.95
2017-12-03T12:56:31.437Z,21.02
2017-12-03T12:58:59.644Z,23.12
2017-12-03T13:01:27.799Z,21.30
2017-12-03T13:03:55.995Z,21.92
2017-12-03T13:06:24.113Z,19.58
2017-12-03T13:08:53.021Z,19.27
2017-12-03T13:11:22.078Z,18.87
2017-12-03T13:13:50.233Z,24.50
2017-12-03T13:16:18.465Z,18.90
2017-12-03T13:18:47.377Z,21.27
2017-12-03T13:21:15.518Z,19.30
2017-12-03T13:23:44.457Z,18.33
2017-12-03T13:26:13.368Z,23.23
2017-12-03T13:28:41.650Z,23.38
2017-12-03T13:31:09.825Z,21.05
2017-12-03T13:33:37.978Z,21.45
2017-12-03T13:36:06.167Z,24.10
2017-12-03T13:38:34.305Z,21.00
2017-12-03T13:41:03.229Z,23.38
2017-12-03T13:43:36.501Z,43.17
2017-12-03T13:46:04.703Z,24.15
2017-12-03T13:48:32.872Z,22.15
2017-12-03T13:51:01.072Z,22.85
2017-12-03T13:53:29.986Z,22.83
2017-12-03T13:55:58.133Z,28.02
2017-12-03T13:58:27.085Z,30.37
2017-12-03T14:00:55.216Z,26.45
2017-12-03T14:03:24.324Z,22.08
2017-12-03T14:05:53.228Z,21.17
2017-12-03T14:08:21.382Z,22.45
2017-12-03T14:10:49.553Z,28.58
2017-12-03T14:13:17.770Z,27.25
2017-12-03T14:15:46.034Z,27.95
2017-12-03T14:18:14.248Z,29.92
2017-12-03T14:20:42.427Z,23.62
2017-12-03T14:23:10.592Z,21.83
2017-12-03T14:25:39.402Z,23.33
2017-12-03T14:28:08.310Z,25.25
2017-12-03T14:30:36.532Z,24.63
2017-12-03T14:33:04.689Z,25.67
2017-12-03T14:35:32.836Z,28.17
2017-12-03T14:38:01.232Z,26.50
2017-12-03T14:40:29.373Z,23.67
2017-12-03T14:46:07.121Z,23.00
2017-12-03T14:48:35.303Z,25.37
2017-12-03T14:51:03.453Z,27.13
2017-12-03T14:53:31.676Z,25.30
2017-12-03T14:55:59.867Z,24.00
2017-12-03T14:58:28.035Z,23.38
2017-12-03T15:00:56.228Z,26.50
2017-12-03T15:03:24.368Z,26.27
2017-12-03T15:05:52.560Z,25.35
2017-12-03T15:08:20.805Z,25.00
2017-12-03T15:10:48.941Z,29.87
2017-12-03T15:13:17.093Z,27.55
2017-12-03T15:15:46.123Z,30.50
2017-12-03T15:18:14.257Z,29.87
2017-12-03T15:20:42.407Z,24.95
2017-12-03T15:23:10.596Z,26.33
2017-12-03T15:25:39.511Z,28.87
2017-12-03T15:28:08.540Z,33.22
2017-12-03T15:30:37.440Z,28.60
2017-12-03T15:33:05.581Z,25.20
2017-12-03T15:35:33.756Z,24.42
2017-12-03T15:38:02.646Z,24.77
2017-12-03T15:40:30.807Z,33.17
2017-12-03T15:42:59.736Z,28.85
2017-12-03T15:45:27.874Z,27.95
2017-12-03T15:47:56.093Z,26.98
2017-12-03T15:50:24.243Z,30.33
2017-12-03T15:52:52.386Z,36.08
2017-12-03T15:55:21.328Z,38.70
2017-12-03T15:58:38.173Z,31.48
2017-12-03T16:01:06.445Z,33.90
2017-12-03T16:03:34.616Z,26.83
2017-12-03T16:08:44.780Z,28.55
2017-12-03T16:11:13.621Z,24.45
2017-12-03T16:13:41.794Z,29.40
2017-12-03T16:16:10.022Z,30.45
2017-12-03T16:18:38.280Z,30.08
2017-12-03T16:21:06.432Z,29.23
2017-12-03T16:23:34.571Z,27.48
2017-12-03T16:26:03.517Z,32.95
2017-12-03T16:28:31.660Z,31.75
2017-12-03T16:30:59.829Z,27.73
2017-12-03T16:33:28.002Z,25.95
2017-12-03T16:35:57.202Z,26.40
2017-12-03T16:38:25.359Z,28.05
2017-12-03T16:40:54.332Z,32.83
2017-12-03T16:43:22.496Z,33.38
2017-12-03T16:45:50.709Z,40.80
2017-12-03T16:48:19.617Z,51.55
2017-12-03T16:50:47.803Z,47.58
2017-12-03T16:53:16.829Z,39.45
2017-12-03T16:55:45.710Z,31.98
2017-12-03T16:58:28.853Z,29.40
2017-12-03T17:00:57.062Z,31.35
2017-12-03T17:03:31.567Z,26.83
2017-12-03T17:06:10.756Z,28.10
2017-12-03T17:08:41.991Z,29.80
2017-12-03T17:11:10.187Z,34.78
2017-12-03T17:13:38.903Z,30.92
2017-12-03T17:16:10.106Z,30.00
2017-12-03T17:18:44.963Z,32.63
2017-12-03T17:21:25.699Z,32.90
2017-12-03T17:23:53.865Z,32.78
2017-12-03T17:26:22.877Z,32.63
2017-12-03T17:28:59.962Z,27.92
2017-12-03T17:31:28.294Z,26.90
2017-12-03T17:33:57.194Z,27.65
2017-12-03T17:36:25.382Z,29.17
2017-12-03T17:38:53.531Z,33.97
2017-12-03T17:41:23.307Z,36.35
2017-12-03T17:43:51.626Z,39.83
2017-12-03T17:46:29.540Z,35.70
2017-12-03T17:52:02.578Z,27.27
2017-12-03T17:54:30.740Z,27.05
2017-12-03T17:56:58.928Z,31.98
2017-12-03T17:59:27.088Z,33.05
2017-12-03T18:01:55.361Z,31.08
2017-12-03T18:04:23.738Z,31.27
2017-12-03T18:06:51.907Z,36.55
2017-12-03T18:09:20.098Z,36.38
2017-12-03T18:11:48.283Z,32.83
2017-12-03T18:14:16.434Z,34.65
2017-12-03T18:16:44.690Z,29.98
2017-12-03T18:19:12.875Z,29.90
2017-12-03T18:21:41.033Z,28.27
2017-12-03T18:24:09.437Z,27.00
2017-12-03T18:26:37.558Z,28.75
2017-12-03T18:29:06.538Z,32.92
2017-12-03T18:34:11.707Z,31.27
2017-12-03T18:36:39.865Z,28.50
2017-12-03T18:39:08.027Z,25.37
2017-12-03T18:41:36.222Z,28.80
2017-12-03T18:44:06.002Z,27.00
2017-12-03T18:46:34.856Z,26.12
2017-12-03T18:49:02.985Z,29.95
2017-12-03T18:51:31.150Z,29.15
2017-12-03T18:53:59.322Z,27.30
2017-12-03T18:56:27.482Z,28.92
2017-12-03T18:58:56.549Z,28.27
2017-12-03T19:01:24.782Z,29.55
2017-12-03T19:03:52.926Z,33.50
2017-12-03T19:06:21.079Z,35.13
2017-12-03T19:08:49.242Z,33.47
2017-12-03T19:11:17.455Z,32.20
2017-12-03T19:13:45.624Z,33.78
2017-12-03T19:16:13.798Z,24.90
2017-12-03T19:18:42.146Z,27.20
2017-12-03T19:21:10.284Z,33.20
2017-12-03T19:23:39.239Z,24.60
2017-12-03T19:26:07.381Z,27.92
2017-12-03T19:28:35.530Z,24.98
2017-12-03T19:31:04.523Z,32.58
2017-12-03T19:33:32.678Z,31.02
2017-12-03T19:36:01.605Z,26.05
2017-12-03T19:38:29.948Z,28.17
2017-12-03T19:40:58.121Z,29.40
2017-12-03T19:43:27.071Z,24.42
2017-12-03T19:45:55.226Z,22.75
2017-12-03T19:48:23.377Z,21.92
2017-12-03T19:50:51.696Z,23.83
2017-12-03T19:53:19.836Z,24.60
2017-12-03T19:55:48.268Z,27.30
2017-12-03T19:58:16.433Z,25.80
2017-12-03T20:00:44.600Z,27.37
2017-12-03T20:03:12.775Z,26.08
2017-12-03T20:05:40.933Z,24.95
2017-12-03T20:08:09.288Z,28.08
2017-12-03T20:10:38.176Z,22.52
2017-12-03T20:13:06.347Z,22.87
2017-12-03T20:15:34.506Z,22.55
2017-12-03T20:18:03.478Z,23.77
2017-12-03T20:20:31.683Z,22.70
2017-12-03T20:22:59.824Z,24.10
2017-12-03T20:25:28.129Z,22.52
2017-12-03T20:27:56.282Z,25.15
2017-12-03T20:30:24.460Z,26.17
2017-12-03T20:32:53.410Z,23.52
2017-12-03T20:35:21.570Z,23.92
2017-12-03T20:37:49.749Z,27.90
2017-12-03T20:40:17.892Z,25.58
2017-12-03T20:42:46.039Z,24.05
2017-12-03T20:45:14.349Z,22.90
2017-12-03T20:47:43.274Z,26.95
2017-12-03T20:50:11.475Z,24.80
2017-12-03T20:52:39.640Z,31.58
2017-12-03T20:55:07.810Z,26.48
2017-12-03T20:57:35.963Z,27.20
2017-12-03T21:00:04.261Z,27.37
2017-12-03T21:02:32.450Z,23.55
2017-12-03T21:05:00.632Z,24.70
2017-12-03T21:07:28.777Z,25.80
2017-12-03T21:09:56.904Z,28.90
2017-12-03T21:12:25.095Z,26.17
2017-12-03T21:14:54.022Z,27.83
2017-12-03T21:17:22.216Z,26.10
2017-12-03T21:19:50.521Z,25.55
2017-12-03T21:22:18.668Z,27.13
2017-12-03T21:24:47.576Z,27.02
2017-12-03T21:27:16.529Z,31.58
2017-12-03T21:29:44.912Z,27.48
2017-12-03T21:32:13.102Z,31.33
2017-12-03T21:34:42.233Z,28.52
2017-12-03T21:37:10.558Z,27.55
2017-12-03T21:39:38.777Z,24.90
2017-12-03T21:42:07.722Z,29.90
2017-12-03T21:44:35.898Z,29.67
2017-12-03T21:47:04.042Z,32.08
2017-12-03T21:49:32.250Z,28.65
2017-12-03T21:52:00.418Z,28.85
2017-12-03T21:54:28.551Z,30.60
2017-12-03T21:56:56.765Z,30.80
2017-12-03T21:59:24.949Z,28.33
2017-12-03T22:01:53.106Z,27.62
2017-12-03T22:04:21.295Z,27.40
2017-12-03T22:06:49.459Z,27.25
2017-12-03T22:09:17.609Z,30.67
2017-12-03T22:11:45.760Z,29.63
2017-12-03T22:14:13.910Z,29.75
2017-12-03T22:16:42.884Z,30.40
2017-12-03T22:19:11.835Z,28.30
2017-12-03T22:21:39.967Z,28.90
2017-12-03T22:24:08.107Z,33.28
2017-12-03T22:26:36.287Z,32.75
2017-12-03T22:29:04.596Z,34.88
2017-12-03T22:31:33.541Z,30.88
2017-12-03T22:34:01.681Z,30.98
2017-12-03T22:36:29.822Z,28.55
2017-12-03T22:38:58.752Z,30.62
2017-12-03T22:41:26.884Z,30.92
2017-12-03T22:43:55.834Z,36.33
2017-12-03T22:46:23.984Z,36.83
2017-12-03T22:48:52.147Z,35.13
2017-12-03T22:51:20.423Z,31.85
2017-12-03T22:53:49.379Z,30.48
2017-12-03T22:56:17.572Z,32.17
2017-12-03T22:58:46.480Z,34.50
2017-12-03T23:01:14.624Z,31.45
2017-12-03T23:03:43.809Z,34.63
2017-12-03T23:06:12.336Z,32.15
2017-12-03T23:08:40.645Z,35.90
2017-12-03T23:11:08.779Z,32.53
2017-12-03T23:13:36.956Z,32.05
2017-12-03T23:16:05.112Z,33.10
2017-12-03T23:18:34.044Z,32.20
2017-12-03T23:21:02.452Z,31.50
2017-12-03T23:23:30.596Z,32.72
2017-12-03T23:25:58.902Z,29.48
2017-12-03T23:28:27.041Z,33.45
2017-12-03T23:30:55.185Z,32.00
2017-12-03T23:33:23.348Z,29.77
2017-12-03T23:35:52.256Z,30.12
2017-12-03T23:38:20.432Z,32.00
2017-12-03T23:40:48.606Z,32.08
2017-12-03T23:43:17.509Z,33.22
2017-12-03T23:45:45.795Z,30.12
2017-12-03T23:48:13.938Z,32.88
2017-12-03T23:50:42.107Z,27.92
2017-12-03T23:53:10.235Z,32.50
2017-12-03T23:55:39.147Z,34.70
2017-12-03T23:58:07.276Z,33.28
